createdAt,value
2018-09-18T00:01:28.231Z,73.72
2018-09-18T00:03:56.719Z,73.58
2018-09-18T00:06:25.020Z,73.98
2018-09-18T00:08:53.315Z,73.68
2018-09-18T00:11:21.657Z,73.52
2018-09-18T00:13:49.998Z,74.17
2018-09-18T00:16:18.279Z,74.93
2018-09-18T00:18:46.593Z,75.43
2018-09-18T00:21:14.989Z,75.52
2018-09-18T00:23:43.299Z,75.38
2018-09-18T00:26:11.590Z,74.84
2018-09-18T00:28:39.912Z,74.52
2018-09-18T00:31:08.270Z,74.27
2018-09-18T00:33:36.560Z,74.72
2018-09-18T00:36:04.885Z,74.11
2018-09-18T00:38:33.222Z,74.69
2018-09-18T00:41:01.568Z,74.81
2018-09-18T00:43:29.855Z,75.95
2018-09-18T00:45:58.167Z,75.60
2018-09-18T00:48:26.508Z,75.21
2018-09-18T00:50:54.814Z,75.36
2018-09-18T00:53:23.099Z,75.28
2018-09-18T00:55:51.570Z,75.10
2018-09-18T00:58:19.894Z,75.82
2018-09-18T01:00:48.201Z,75.71
2018-09-18T01:03:16.510Z,75.00
2018-09-18T01:05:44.842Z,74.86
2018-09-18T01:08:13.118Z,75.38
2018-09-18T01:10:41.480Z,75.09
2018-09-18T01:13:09.771Z,75.85
2018-09-18T01:15:38.110Z,75.79
2018-09-18T01:18:06.551Z,76.29
2018-09-18T01:20:34.850Z,76.75
2018-09-18T01:23:03.169Z,76.36
2018-09-18T01:25:31.480Z,76.25
2018-09-18T01:27:59.774Z,76.55
2018-09-18T01:30:28.082Z,76.22
2018-09-18T01:32:56.386Z,76.27
2018-09-18T01:35:24.726Z,76.59
2018-09-18T01:37:53.047Z,76.35
2018-09-18T01:40:21.538Z,76.23
2018-09-18T01:42:49.845Z,77.04
2018-09-18T01:45:18.274Z,76.92
2018-09-18T01:47:46.640Z,76.81
2018-09-18T01:50:14.969Z,77.12
2018-09-18T01:52:43.336Z,76.51
2018-09-18T01:55:11.659Z,77.50
2018-09-18T01:57:39.975Z,77.04
2018-09-18T02:00:08.430Z,76.94
2018-09-18T02:02:36.795Z,76.21
2018-09-18T02:05:05.092Z,76.58
2018-09-18T02:07:34.279Z,76.69
2018-09-18T02:10:02.584Z,75.86
2018-09-18T02:12:30.954Z,76.22
2018-09-18T02:14:59.245Z,77.17
2018-09-18T02:17:27.608Z,78.08
2018-09-18T02:19:55.906Z,78.08
2018-09-18T02:22:24.229Z,78.34
2018-09-18T02:24:52.525Z,78.15
2018-09-18T02:27:20.836Z,77.91
2018-09-18T02:29:49.118Z,77.36
2018-09-18T02:32:17.499Z,77.86
2018-09-18T02:34:45.906Z,77.96
2018-09-18T02:37:14.260Z,77.23
2018-09-18T02:39:42.543Z,77.61
2018-09-18T02:42:11.085Z,78.11
2018-09-18T02:44:39.475Z,78.56
2018-09-18T02:47:07.752Z,78.46
2018-09-18T02:49:36.106Z,77.98
2018-09-18T02:52:04.406Z,78.45
2018-09-18T02:54:32.731Z,78.65
2018-09-18T02:57:00.996Z,78.82
2018-09-18T02:59:29.343Z,78.53
2018-09-18T03:01:57.639Z,78.74
2018-09-18T03:04:25.995Z,78.39
2018-09-18T03:06:54.366Z,78.42
2018-09-18T03:09:22.689Z,77.99
2018-09-18T03:11:50.980Z,78.13
2018-09-18T03:14:19.287Z,78.26
2018-09-18T03:16:47.620Z,78.45
2018-09-18T03:19:15.962Z,78.70
2018-09-18T03:21:44.268Z,78.45
2018-09-18T03:24:12.582Z,79.18
2018-09-18T03:26:40.858Z,79.76
2018-09-18T03:29:09.203Z,80.08
2018-09-18T03:31:37.546Z,79.87
2018-09-18T03:34:05.867Z,79.90
2018-09-18T03:36:34.183Z,79.54
2018-09-18T03:39:02.495Z,79.67
2018-09-18T03:41:30.778Z,79.14
2018-09-18T03:43:59.109Z,79.89
2018-09-18T03:46:27.391Z,79.50
2018-09-18T03:48:55.714Z,78.92
2018-09-18T03:51:24.028Z,79.29
2018-09-18T03:53:52.314Z,79.82
2018-09-18T03:56:20.657Z,79.77
2018-09-18T03:58:50.632Z,79.92
2018-09-18T04:01:19.121Z,80.10
2018-09-18T04:03:47.754Z,80.45
2018-09-18T04:06:16.494Z,80.42
2018-09-18T04:08:44.859Z,80.23
2018-09-18T04:11:13.226Z,80.43
2018-09-18T04:13:41.578Z,80.63
2018-09-18T04:16:09.864Z,80.36
2018-09-18T04:18:38.203Z,79.57
2018-09-18T04:21:06.666Z,80.07
2018-09-18T04:23:35.084Z,80.18
2018-09-18T04:26:03.452Z,80.37
2018-09-18T04:28:31.768Z,80.87
2018-09-18T04:31:00.114Z,80.88
2018-09-18T04:33:28.498Z,80.65
2018-09-18T04:35:56.802Z,80.59
2018-09-18T04:38:25.142Z,80.89
2018-09-18T04:40:53.530Z,80.61
2018-09-18T04:43:21.942Z,80.02
2018-09-18T04:45:50.368Z,80.63
2018-09-18T04:48:18.589Z,81.24
2018-09-18T04:50:47.042Z,81.08
2018-09-18T04:53:15.322Z,81.05
2018-09-18T04:55:43.657Z,80.91
2018-09-18T04:58:11.949Z,80.75
2018-09-18T05:00:40.327Z,80.75
2018-09-18T05:03:08.617Z,80.65
2018-09-18T05:05:36.939Z,80.79
2018-09-18T05:08:05.357Z,80.14
2018-09-18T05:10:33.662Z,81.03
2018-09-18T05:13:01.972Z,80.90
2018-09-18T05:15:30.323Z,81.48
2018-09-18T05:17:58.693Z,81.57
2018-09-18T05:20:27.250Z,81.29
2018-09-18T05:22:55.535Z,80.97
2018-09-18T05:25:24.639Z,81.03
2018-09-18T05:27:53.039Z,81.19
2018-09-18T05:30:21.454Z,81.11
2018-09-18T05:32:50.352Z,81.13
2018-09-18T05:35:18.824Z,81.21
2018-09-18T05:37:47.386Z,80.55
2018-09-18T05:40:16.417Z,80.92
2018-09-18T05:42:45.058Z,80.14
2018-09-18T05:45:13.485Z,80.54
2018-09-18T05:47:41.884Z,80.79
2018-09-18T05:50:10.312Z,81.32
2018-09-18T05:52:38.577Z,80.47
2018-09-18T05:55:06.908Z,79.96
2018-09-18T05:57:37.213Z,80.09
2018-09-18T06:00:06.149Z,80.47
2018-09-18T06:02:41.585Z,79.65
2018-09-18T06:05:10.229Z,79.66
2018-09-18T06:07:38.740Z,79.69
2018-09-18T06:10:07.380Z,79.80
2018-09-18T06:12:35.715Z,80.12
2018-09-18T06:15:04.086Z,79.42
2018-09-18T06:17:32.638Z,79.04
2018-09-18T06:20:01.018Z,78.72
2018-09-18T06:22:30.492Z,78.08
2018-09-18T06:25:00.036Z,78.74
2018-09-18T06:27:28.410Z,77.98
2018-09-18T06:29:56.750Z,77.33
2018-09-18T06:32:25.102Z,77.73
2018-09-18T06:34:53.847Z,77.44
2018-09-18T06:37:23.203Z,76.67
2018-09-18T06:39:51.510Z,75.86
2018-09-18T06:42:19.879Z,74.56
2018-09-18T06:44:48.338Z,75.62
2018-09-18T06:47:17.101Z,74.29
2018-09-18T06:49:45.669Z,74.37
2018-09-18T06:52:13.999Z,74.98
2018-09-18T06:54:42.278Z,75.20
2018-09-18T06:57:10.601Z,75.60
2018-09-18T06:59:38.908Z,74.71
2018-09-18T07:02:07.293Z,73.25
2018-09-18T07:04:35.659Z,72.38
2018-09-18T07:07:03.983Z,71.64
2018-09-18T07:09:32.305Z,71.08
2018-09-18T07:12:00.649Z,70.94
2018-09-18T07:14:28.968Z,70.26
2018-09-18T07:16:57.307Z,69.48
2018-09-18T07:19:25.626Z,69.39
2018-09-18T07:21:53.959Z,68.17
2018-09-18T07:24:22.254Z,67.07
2018-09-18T07:26:50.639Z,64.81
2018-09-18T07:29:19.070Z,64.20
2018-09-18T07:31:47.391Z,63.63
2018-09-18T07:34:15.696Z,64.03
2018-09-18T07:36:44.025Z,63.10
2018-09-18T07:39:12.887Z,61.71
2018-09-18T07:41:41.248Z,61.44
2018-09-18T07:44:09.816Z,61.25
2018-09-18T07:46:38.155Z,60.51
2018-09-18T07:49:06.683Z,60.51
2018-09-18T07:51:35.745Z,60.84
2018-09-18T07:54:04.143Z,60.04
2018-09-18T07:56:32.957Z,59.43
2018-09-18T07:59:02.041Z,58.56
2018-09-18T08:01:30.973Z,58.56
2018-09-18T08:03:59.398Z,57.44
2018-09-18T08:06:27.759Z,57.79
2018-09-18T08:08:56.074Z,57.22
2018-09-18T08:11:24.447Z,56.02
2018-09-18T08:13:52.735Z,57.01
2018-09-18T08:16:21.239Z,56.00
2018-09-18T08:18:49.522Z,55.06
2018-09-18T08:21:17.844Z,55.51
2018-09-18T08:23:46.202Z,54.23
2018-09-18T08:26:14.539Z,54.58
2018-09-18T08:28:42.938Z,54.10
2018-09-18T08:31:11.271Z,53.82
2018-09-18T08:33:39.651Z,53.34
2018-09-18T08:36:07.931Z,53.65
2018-09-18T08:38:36.251Z,53.26
2018-09-18T08:41:04.745Z,52.64
2018-09-18T08:43:33.193Z,52.63
2018-09-18T08:46:01.608Z,52.19
2018-09-18T08:48:31.320Z,50.49
2018-09-18T08:51:00.865Z,49.80
2018-09-18T08:53:29.681Z,48.42
2018-09-18T08:55:58.076Z,48.15
2018-09-18T08:58:26.607Z,46.75
2018-09-18T09:00:54.933Z,46.57
2018-09-18T09:03:23.378Z,45.68
2018-09-18T09:05:51.671Z,47.16
2018-09-18T09:08:20.086Z,47.48
2018-09-18T09:10:48.416Z,47.57
2018-09-18T09:13:16.743Z,47.18
2018-09-18T09:15:45.067Z,47.34
2018-09-18T09:18:13.539Z,47.48
2018-09-18T09:20:41.777Z,47.72
2018-09-18T09:23:10.077Z,46.39
2018-09-18T09:25:38.413Z,45.57
2018-09-18T09:28:07.032Z,47.30
2018-09-18T09:30:35.385Z,46.46
2018-09-18T09:33:03.735Z,45.54
2018-09-18T09:35:32.085Z,45.63
2018-09-18T09:38:00.439Z,46.85
2018-09-18T09:40:28.747Z,46.09
2018-09-18T09:42:57.102Z,44.95
2018-09-18T09:45:25.408Z,45.33
2018-09-18T09:47:53.852Z,44.93
2018-09-18T09:50:22.159Z,45.93
2018-09-18T09:52:50.472Z,44.45
2018-09-18T09:55:18.915Z,44.63
2018-09-18T09:57:47.224Z,43.56
2018-09-18T10:00:20.888Z,42.99
2018-09-18T10:02:49.508Z,42.72
2018-09-18T10:05:18.808Z,42.51
2018-09-18T10:07:47.427Z,43.32
2018-09-18T10:10:15.746Z,41.12
2018-09-18T10:12:44.134Z,41.91
2018-09-18T10:15:12.472Z,42.38
2018-09-18T10:17:41.003Z,43.18
2018-09-18T10:20:09.483Z,43.89
2018-09-18T10:22:37.856Z,43.24
2018-09-18T10:25:06.356Z,43.09
2018-09-18T10:27:34.712Z,40.57
2018-09-18T10:30:03.075Z,41.33
2018-09-18T10:32:31.409Z,39.83
2018-09-18T10:34:59.778Z,40.47
2018-09-18T10:37:28.065Z,41.03
2018-09-18T10:39:56.600Z,41.50
2018-09-18T10:42:25.041Z,41.77
2018-09-18T10:44:53.406Z,41.73
2018-09-18T10:47:21.733Z,42.05
2018-09-18T10:49:50.059Z,41.23
2018-09-18T10:52:18.382Z,40.66
2018-09-18T10:54:46.718Z,41.19
2018-09-18T10:57:15.120Z,40.81
2018-09-18T10:59:43.594Z,39.18
2018-09-18T11:02:12.046Z,40.08
2018-09-18T11:04:40.253Z,40.18
2018-09-18T11:07:08.695Z,39.09
2018-09-18T11:09:37.068Z,40.26
2018-09-18T11:12:05.380Z,39.94
2018-09-18T11:14:33.804Z,39.26
2018-09-18T11:17:02.117Z,39.41
2018-09-18T11:19:30.410Z,39.36
2018-09-18T11:21:58.808Z,39.49
2018-09-18T11:24:27.129Z,39.82
2018-09-18T11:26:55.432Z,39.49
2018-09-18T11:29:23.772Z,36.85
2018-09-18T11:31:52.144Z,38.72
2018-09-18T11:34:20.463Z,39.49
2018-09-18T11:36:48.758Z,39.23
2018-09-18T11:39:17.238Z,38.93
2018-09-18T11:41:45.513Z,39.54
2018-09-18T11:44:13.806Z,39.37
2018-09-18T11:46:42.210Z,38.64
2018-09-18T11:49:10.458Z,38.05
2018-09-18T11:51:38.788Z,38.16
2018-09-18T11:54:07.295Z,38.17
2018-09-18T11:56:35.685Z,39.08
2018-09-18T11:59:04.009Z,38.67
2018-09-18T12:01:32.301Z,37.84
2018-09-18T12:04:00.851Z,36.82
2018-09-18T12:06:29.155Z,38.56
2018-09-18T12:08:57.473Z,37.86
2018-09-18T12:11:25.807Z,37.38
2018-09-18T12:13:54.250Z,38.12
2018-09-18T12:16:22.530Z,37.40
2018-09-18T12:18:50.835Z,36.39
2018-09-18T12:21:19.159Z,36.28
2018-09-18T12:23:47.518Z,36.30
2018-09-18T12:26:15.909Z,36.63
2018-09-18T12:28:44.269Z,37.79
2018-09-18T12:31:12.638Z,37.10
2018-09-18T12:33:40.988Z,37.13
2018-09-18T12:36:09.715Z,36.69
2018-09-18T12:38:38.037Z,36.37
2018-09-18T12:41:06.479Z,33.97
2018-09-18T12:43:35.004Z,35.19
2018-09-18T12:46:03.360Z,35.90
2018-09-18T12:48:32.038Z,32.75
2018-09-18T12:51:00.472Z,32.94
2018-09-18T12:53:28.707Z,34.61
2018-09-18T12:55:57.025Z,32.76
2018-09-18T12:58:25.347Z,33.46
2018-09-18T13:00:53.648Z,31.67
2018-09-18T13:03:21.955Z,32.86
2018-09-18T13:05:50.466Z,32.80
2018-09-18T13:08:19.292Z,33.58
2018-09-18T13:10:47.778Z,33.29
2018-09-18T13:13:16.836Z,33.36
2018-09-18T13:15:45.162Z,33.85
2018-09-18T13:18:13.722Z,33.20
2018-09-18T13:20:42.215Z,33.38
2018-09-18T13:23:10.623Z,33.61
2018-09-18T13:25:39.542Z,32.51
2018-09-18T13:28:08.197Z,33.58
2018-09-18T13:30:36.566Z,33.53
2018-09-18T13:33:04.976Z,32.72
2018-09-18T13:35:33.298Z,33.89
2018-09-18T13:38:02.155Z,34.27
2018-09-18T13:40:30.937Z,33.89
2018-09-18T13:42:59.416Z,33.82
2018-09-18T13:45:27.872Z,33.57
2018-09-18T13:47:56.331Z,35.32
2018-09-18T13:50:25.026Z,33.45
2018-09-18T13:52:53.350Z,33.52
2018-09-18T13:55:21.957Z,33.86
2018-09-18T13:57:50.389Z,35.06
2018-09-18T14:00:19.015Z,34.76
2018-09-18T14:02:47.406Z,33.98
2018-09-18T14:05:15.748Z,34.06
2018-09-18T14:07:45.178Z,33.45
2018-09-18T14:10:15.264Z,35.08
2018-09-18T14:12:44.038Z,33.67
2018-09-18T14:15:12.659Z,33.40
2018-09-18T14:17:40.879Z,33.93
2018-09-18T14:20:09.756Z,33.88
2018-09-18T14:22:38.310Z,35.01
2018-09-18T14:25:06.648Z,35.48
2018-09-18T14:27:35.083Z,32.68
2018-09-18T14:30:03.996Z,32.65
2018-09-18T14:32:32.728Z,33.07
2018-09-18T14:35:01.606Z,32.56
2018-09-18T14:37:30.095Z,33.57
2018-09-18T14:39:58.448Z,31.71
2018-09-18T14:42:26.819Z,34.14
2018-09-18T14:44:55.102Z,34.19
2018-09-18T14:47:23.432Z,34.17
2018-09-18T14:49:51.807Z,35.30
2018-09-18T14:52:20.142Z,35.32
2018-09-18T14:54:48.794Z,34.38
2018-09-18T14:57:17.178Z,34.13
2018-09-18T14:59:46.264Z,34.62
2018-09-18T15:02:14.565Z,34.95
2018-09-18T15:04:42.874Z,34.38
2018-09-18T15:07:11.260Z,35.41
2018-09-18T15:09:39.554Z,34.90
2018-09-18T15:12:07.859Z,35.50
2018-09-18T15:14:36.245Z,33.83
2018-09-18T15:17:04.555Z,32.52
2018-09-18T15:19:32.831Z,32.57
2018-09-18T15:22:01.157Z,33.38
2018-09-18T15:24:29.454Z,35.10
2018-09-18T15:26:57.817Z,34.96
2018-09-18T15:29:26.154Z,34.57
2018-09-18T15:31:54.541Z,34.63
2018-09-18T15:34:22.833Z,36.24
2018-09-18T15:36:51.147Z,35.13
2018-09-18T15:39:19.583Z,34.86
2018-09-18T15:41:47.920Z,35.38
2018-09-18T15:44:16.305Z,35.45
2018-09-18T15:46:44.658Z,35.07
2018-09-18T15:49:12.967Z,36.10
2018-09-18T15:51:41.371Z,35.35
2018-09-18T15:54:09.732Z,36.39
2018-09-18T15:56:38.099Z,35.63
2018-09-18T15:59:06.529Z,36.09
2018-09-18T16:01:34.836Z,36.61
2018-09-18T16:04:03.119Z,36.49
2018-09-18T16:06:31.445Z,35.46
2018-09-18T16:09:00.151Z,36.86
2018-09-18T16:11:28.489Z,36.92
2018-09-18T16:13:56.896Z,36.81
2018-09-18T16:16:25.271Z,37.51
2018-09-18T16:18:53.846Z,37.23
2018-09-18T16:21:22.922Z,36.51
2018-09-18T16:23:51.352Z,37.38
2018-09-18T16:26:19.773Z,36.94
2018-09-18T16:28:48.151Z,37.67
2018-09-18T16:31:16.540Z,38.13
2018-09-18T16:33:44.883Z,37.87
2018-09-18T16:36:13.515Z,39.00
2018-09-18T16:38:41.925Z,38.74
2018-09-18T16:41:10.216Z,38.39
2018-09-18T16:43:38.629Z,38.52
2018-09-18T16:46:07.053Z,38.94
2018-09-18T16:48:35.457Z,39.69
2018-09-18T16:51:03.846Z,39.84
2018-09-18T16:53:32.152Z,40.64
2018-09-18T16:56:00.495Z,40.79
2018-09-18T16:58:28.846Z,40.69
2018-09-18T17:00:57.613Z,41.54
2018-09-18T17:03:26.014Z,42.04
2018-09-18T17:05:54.374Z,42.05
2018-09-18T17:08:22.671Z,42.06
2018-09-18T17:10:51.115Z,42.76
2018-09-18T17:13:19.520Z,43.34
2018-09-18T17:15:47.917Z,43.73
2018-09-18T17:18:16.245Z,44.96
2018-09-18T17:20:44.589Z,44.48
2018-09-18T17:23:13.621Z,45.88
2018-09-18T17:25:41.932Z,45.59
2018-09-18T17:28:10.366Z,45.51
2018-09-18T17:30:38.657Z,46.00
2018-09-18T17:33:06.997Z,46.58
2018-09-18T17:35:35.361Z,47.04
2018-09-18T17:38:03.628Z,48.06
2018-09-18T17:40:31.942Z,48.10
2018-09-18T17:43:00.247Z,47.70
2018-09-18T17:45:28.572Z,48.94
2018-09-18T17:47:56.954Z,48.28
2018-09-18T17:50:25.369Z,48.99
2018-09-18T17:52:53.637Z,49.05
2018-09-18T17:55:22.069Z,49.90
2018-09-18T17:57:50.404Z,50.21
2018-09-18T18:00:18.819Z,50.29
2018-09-18T18:02:47.169Z,50.61
2018-09-18T18:05:15.515Z,51.60
2018-09-18T18:07:43.789Z,51.88
2018-09-18T18:10:12.141Z,51.25
2018-09-18T18:12:40.532Z,51.15
2018-09-18T18:15:08.867Z,51.25
2018-09-18T18:17:37.487Z,51.54
2018-09-18T18:20:06.022Z,52.22
2018-09-18T18:22:34.310Z,52.09
2018-09-18T18:25:02.844Z,52.72
2018-09-18T18:27:31.197Z,52.30
2018-09-18T18:29:59.651Z,52.65
2018-09-18T18:32:27.985Z,53.29
2018-09-18T18:34:56.362Z,53.29
2018-09-18T18:37:24.811Z,53.19
2018-09-18T18:39:53.334Z,53.36
2018-09-18T18:42:22.897Z,54.25
2018-09-18T18:44:51.431Z,54.44
2018-09-18T18:47:20.711Z,54.44
2018-09-18T18:49:49.241Z,53.80
2018-09-18T18:52:17.658Z,54.57
2018-09-18T18:54:46.070Z,54.74
2018-09-18T18:57:14.489Z,54.61
2018-09-18T18:59:45.835Z,54.59
2018-09-18T19:02:15.403Z,54.61
2018-09-18T19:04:44.316Z,55.21
2018-09-18T19:07:15.009Z,54.92
2018-09-18T19:09:44.648Z,55.42
2018-09-18T19:12:13.457Z,55.63
2018-09-18T19:14:42.554Z,55.63
2018-09-18T19:17:11.929Z,55.06
2018-09-18T19:19:40.903Z,55.31
2018-09-18T19:22:09.559Z,55.57
2018-09-18T19:24:37.991Z,56.29
2018-09-18T19:27:07.262Z,56.58
2018-09-18T19:29:36.226Z,56.37
2018-09-18T19:32:04.582Z,56.11
2018-09-18T19:34:32.994Z,56.65
2018-09-18T19:37:03.636Z,57.28
2018-09-18T19:39:33.257Z,56.93
2018-09-18T19:42:01.602Z,56.90
2018-09-18T19:44:30.079Z,57.61
2018-09-18T19:46:58.887Z,57.16
2018-09-18T19:49:27.354Z,56.81
2018-09-18T19:51:55.883Z,57.27
2018-09-18T19:54:24.381Z,57.78
2018-09-18T19:56:53.479Z,57.47
2018-09-18T19:59:22.057Z,56.49
2018-09-18T20:01:50.464Z,56.58
2018-09-18T20:04:18.925Z,55.72
2018-09-18T20:06:47.991Z,55.62
2018-09-18T20:09:17.403Z,55.03
2018-09-18T20:11:45.948Z,54.64
2018-09-18T20:14:14.448Z,53.85
2018-09-18T20:16:42.903Z,54.44
2018-09-18T20:19:11.534Z,53.30
2018-09-18T20:21:40.304Z,53.96
2018-09-18T20:24:09.416Z,54.32
2018-09-18T20:26:38.834Z,54.42
2018-09-18T20:29:07.890Z,55.26
2018-09-18T20:31:36.497Z,55.66
2018-09-18T20:34:05.268Z,57.43
2018-09-18T20:36:34.476Z,58.18
2018-09-18T20:39:03.992Z,58.60
2018-09-18T20:41:34.165Z,58.75
2018-09-18T20:44:03.213Z,59.80
2018-09-18T20:46:32.770Z,59.88
2018-09-18T20:49:01.483Z,59.70
2018-09-18T20:51:30.413Z,60.11
2018-09-18T20:53:59.426Z,60.89
2018-09-18T20:56:27.842Z,60.87
2018-09-18T20:58:56.298Z,61.36
2018-09-18T21:01:24.703Z,61.93
2018-09-18T21:03:53.442Z,61.22
2018-09-18T21:06:21.975Z,61.07
2018-09-18T21:08:51.268Z,62.16
2018-09-18T21:11:19.713Z,60.92
2018-09-18T21:13:48.131Z,59.41
2018-09-18T21:16:16.471Z,59.28
2018-09-18T21:18:44.944Z,57.40
2018-09-18T21:21:13.374Z,56.47
2018-09-18T21:23:41.714Z,55.96
2018-09-18T21:26:19.719Z,56.10
2018-09-18T21:28:48.557Z,54.67
2018-09-18T21:31:17.425Z,55.95
2018-09-18T21:33:45.925Z,55.42
2018-09-18T21:38:54.272Z,54.92
2018-09-18T21:41:22.583Z,56.39
2018-09-18T21:43:50.850Z,56.50
2018-09-18T21:46:19.339Z,58.28
2018-09-18T21:48:47.727Z,57.97
2018-09-18T21:51:16.109Z,57.70
2018-09-18T21:53:44.410Z,58.12
2018-09-18T21:56:12.799Z,58.61
2018-09-18T21:58:41.194Z,59.41
2018-09-18T22:01:09.700Z,60.82
2018-09-18T22:03:38.127Z,59.65
2018-09-18T22:06:06.461Z,61.24
2018-09-18T22:08:36.626Z,60.28
2018-09-18T22:11:05.023Z,59.48
2018-09-18T22:13:33.434Z,59.72
2018-09-18T22:16:01.791Z,60.15
2018-09-18T22:18:30.095Z,59.47
2018-09-18T22:20:58.429Z,60.46
2018-09-18T22:23:26.745Z,60.64
2018-09-18T22:25:55.089Z,61.11
2018-09-18T22:28:23.395Z,62.01
2018-09-18T22:30:51.723Z,60.15
2018-09-18T22:33:20.129Z,61.33
2018-09-18T22:35:48.437Z,60.78
2018-09-18T22:38:16.816Z,61.33
2018-09-18T22:40:45.204Z,61.57
2018-09-18T22:43:13.709Z,60.45
2018-09-18T22:45:41.960Z,61.29
2018-09-18T22:48:10.313Z,61.30
2018-09-18T22:50:38.614Z,61.81
2018-09-18T22:53:06.927Z,60.55
2018-09-18T22:55:35.246Z,60.35
2018-09-18T23:00:31.066Z,61.32
2018-09-18T23:02:59.387Z,62.12
2018-09-18T23:05:27.697Z,61.90
2018-09-18T23:07:56.094Z,62.42
2018-09-18T23:10:24.393Z,62.68
2018-09-18T23:12:52.791Z,63.00
2018-09-18T23:15:21.109Z,63.41
2018-09-18T23:17:49.423Z,64.24
2018-09-18T23:20:17.909Z,64.72
2018-09-18T23:22:46.218Z,64.31
2018-09-18T23:25:14.694Z,65.32
2018-09-18T23:27:43.102Z,65.68
2018-09-18T23:30:11.510Z,66.27
2018-09-18T23:32:39.875Z,66.81
2018-09-18T23:35:08.172Z,65.64
2018-09-18T23:37:36.532Z,64.95
2018-09-18T23:40:04.905Z,64.22
2018-09-18T23:42:33.222Z,64.36
2018-09-18T23:45:01.489Z,64.64
2018-09-18T23:47:29.875Z,64.84
2018-09-18T23:49:58.219Z,65.21
2018-09-18T23:52:26.598Z,64.97
2018-09-18T23:54:55.200Z,64.95
2018-09-18T23:57:23.554Z,64.57
2018-09-18T23:59:51.965Z,66.17
